ADDS METAR Data INFO
IDs: Format: Raw Decoded Include TAF

Data at: 1511 UTC 23 Oct 2017

KFPK 231454Z AUTO 09003KT 10SM -DZ SCT027 BKN055 OVC065 15/13 A2978 RMK AO2 P0007 60011 T01470130
KFPK 231435Z AUTO 00000KT 2 1/2SM RA BKN027 OVC048 15/13 A2980 RMK AO2 VIS 1 3/4V5 P0007 T01460130
KFPK 231415Z AUTO 00000KT 3SM -RA BKN029 OVC050 15/13 A2981 RMK AO2 P0004 T01460130
KFPK 231359Z AUTO 17003KT 5SM -RA BKN029 OVC038 15/13 A2983 RMK AO2 P0004 T01480127
KFPK 231335Z AUTO 16004KT 10SM RA SCT030 BKN044 OVC085 16/12 A2982 RMK AO2 P0002 T01550124
KFPK 231315Z AUTO 00000KT 5SM -RA BKN034 BKN043 OVC085 15/13 A2983 RMK AO2 P0001 T01520131
KFPK 231254Z AUTO 00000KT 10SM RA OVC034 16/13 A2984 RMK AO2 T01560125
KFPK 231235Z AUTO 00000KT 10SM -RA OVC036 17/11 A2984 RMK AO2 T01660110
KFPK 231215Z AUTO 00000KT 10SM -RA BKN036 OVC055 17/11 A2984 RMK AO2 T01680110
KFPK 231155Z AUTO 00000KT 10SM OVC036 17/12 A2985 RMK AO2 T01650115 10191 20163
KFPK 231135Z AUTO 00000KT 10SM OVC038 17/11 A2984 RMK AO2 T01700109
KFPK 231114Z AUTO 17004KT 10SM SCT038 OVC050 17/11 A2986 RMK AO2 T01690108
KFPK 231055Z AUTO 16003KT 10SM SCT040 BKN050 BKN065 17/11 A2986 RMK AO2 T01710107
KFPK 231035Z AUTO 15004KT 10SM SCT035 SCT050 BKN065 17/11 A2987 RMK AO2 T01670110
KFPK 231014Z AUTO 18003KT 10SM -DZ SCT035 SCT055 BKN100 17/11 A2988 RMK AO2 T01690110
KFPK 230955Z AUTO 00000KT 10SM SCT048 SCT065 BKN100 17/11 A2988 RMK AO2 T01700110
KFPK 230935Z AUTO 00000KT 10SM SCT041 BKN050 OVC110 17/11 A2990 RMK AO2 T01730109
KFPK 230914Z AUTO 00000KT 10SM SCT047 SCT060 BKN110 17/11 A2990 RMK AO2 T01670112
KFPK 230855Z AUTO 16003KT 10SM SCT041 BKN050 OVC120 17/11 A2990 RMK AO2 T01720112
KFPK 230835Z AUTO 00000KT 10SM OVC050 18/11 A2992 RMK AO2 T01760110
KFPK 230814Z AUTO 15003KT 10SM OVC050 17/12 A2992 RMK AO2 T01740116
KFPK 230755Z AUTO 15003KT 10SM BKN050 OVC060 18/11 A2992 RMK AO2 T01800112
KFPK 230735Z AUTO 00000KT 10SM OVC050 18/12 A2993 RMK AO2 T01800115
KFPK 230715Z AUTO 20003KT 10SM OVC048 18/12 A2993 RMK AO2 T01780119
KFPK 230655Z AUTO 19003KT 10SM OVC048 18/12 A2993 RMK AO2 T01830116
KFPK 230635Z AUTO 17003KT 10SM OVC048 19/12 A2994 RMK AO2 T01860115
KFPK 230615Z AUTO 17005KT 10SM OVC048 19/11 A2994 RMK AO2 T01910114
KFPK 230555Z AUTO 18007KT 10SM OVC046 19/12 A2995 RMK AO2 T01910115 10220 20191 402430141
KFPK 230535Z AUTO 19008KT 10SM OVC046 19/12 A2996 RMK AO2 T01930115
KFPK 230515Z AUTO 19006KT 10SM OVC046 20/12 A2996 RMK AO2 T01950115
KFPK 230455Z AUTO 19010KT 10SM OVC046 20/12 A2996 RMK AO2 T01950116
KFPK 230434Z AUTO 19009KT 10SM OVC046 20/12 A2997 RMK AO2 T01950118
KFPK 230415Z AUTO 18008KT 10SM OVC046 20/12 A2996 RMK AO2 T01980119
KFPK 230355Z AUTO 18007KT 10SM BKN044 OVC050 20/12 A2997 RMK AO2 T01980120
KFPK 230334Z AUTO 18010G14KT 10SM OVC046 20/12 A2997 RMK AO2 T02030120
KFPK 230315Z AUTO 19008KT 10SM OVC046 21/12 A2998 RMK AO2 T02050122
KFPK 230255Z AUTO 18009G15KT 10SM OVC046 21/12 A2998 RMK AO2 T02070122
KFPK 230234Z AUTO 18011KT 10SM OVC050 21/12 A2998 RMK AO2 T02100123
KFPK 230215Z AUTO 18008KT 10SM OVC050 21/12 A2998 RMK AO2 T02120123
KFPK 230155Z AUTO 18010KT 10SM OVC050 22/12 A2998 RMK AO2 T02150123
KFPK 230134Z AUTO 18014G17KT 10SM OVC050 22/12 A2998 RMK AO2 T02170124
KFPK 230115Z AUTO 17012G16KT 10SM SCT050 OVC060 22/13 A2998 RMK AO2 T02180125
KFPK 230055Z AUTO 17011G16KT 10SM OVC060 22/13 A2998 RMK AO2 T02160126
KFPK 230034Z AUTO 17011KT 10SM SCT060 BKN070 OVC120 22/13 A2998 RMK AO2 T02170126
KFPK 230015Z AUTO 17010G16KT 10SM BKN050 BKN120 22/13 A2998 RMK AO2 T02200128
KFPK 222355Z AUTO 16010KT 10SM SCT060 SCT120 22/13 A2997 RMK AO2 T02180130 10243 20217
KFPK 222335Z AUTO 16010KT 10SM BKN060 BKN070 22/13 A2998 RMK AO2 T02210130
KFPK 222315Z AUTO 17009G15KT 10SM BKN060 BKN070 22/13 A2998 RMK AO2 T02220132
KFPK 222255Z AUTO 18008KT 10SM SCT050 SCT065 SCT085 22/13 A2998 RMK AO2 T02200133
KFPK 222235Z AUTO 18008KT 10SM SCT050 BKN060 OVC085 23/14 A2997 RMK AO2 T02250135
KFPK 222215Z AUTO 18010KT 10SM SCT050 BKN060 BKN095 23/14 A2998 RMK AO2 T02280135
KFPK 222155Z AUTO 19011G16KT 10SM SCT070 SCT100 23/14 A2998 RMK AO2 T02300136
KFPK 222135Z AUTO 18014KT 10SM CLR 23/14 A2998 RMK AO2 T02330135
KFPK 222115Z AUTO 17010G20KT 10SM SCT120 23/14 A2998 RMK AO2 T02340136
KFPK 222054Z AUTO 17012G18KT 10SM SCT120 23/13 A2997 RMK AO2 T02340134
KFPK 222035Z AUTO 16012G17KT 10SM SCT049 SCT120 24/14 A2998 RMK AO2 T02350136
KFPK 222015Z AUTO 19016G22KT 10SM CLR 23/14 A2998 RMK AO2 T02330138
KFPK 221954Z AUTO 19017G20KT 10SM SCT041 SCT055 24/14 A2998 RMK AO2 T02350141
KFPK 221935Z AUTO 17010G16KT 10SM OVC041 23/14 A2998 RMK AO2 T02320140
KFPK 221915Z AUTO 19012G18KT 10SM BKN041 BKN047 23/14 A2998 RMK AO2 T02340138
KFPK 221854Z AUTO 18012G20KT 10SM OVC039 24/14 A2999 RMK AO2 T02360140
KFPK 221835Z AUTO 18013KT 10SM OVC037 23/14 A3001 RMK AO2 T02310139
KFPK 221815Z AUTO 18014G18KT 10SM BKN037 BKN043 BKN049 24/14 A3001 RMK AO2 T02360139
KFPK 221754Z AUTO 19014KT 10SM SCT037 SCT045 24/14 A3002 RMK AO2 T02380139 10240 20145
KFPK 221735Z AUTO 20015G19KT 10SM SCT045 24/14 A3003 RMK AO2 T02400136
KFPK 221715Z AUTO 17015G22KT 10SM SCT037 23/13 A3004 RMK AO2 T02320133
KFPK 221654Z AUTO 19011G19KT 10SM CLR 23/13 A3004 RMK AO2 T02300130
KFPK 221635Z AUTO 17013G19KT 10SM CLR 23/13 A3005 RMK AO2 T02280125
KFPK 221615Z AUTO 17012G17KT 10SM CLR 23/12 A3005 RMK AO2 T02260124
KFPK 221554Z AUTO 16012G18KT 10SM CLR 22/12 A3005 RMK AO2 T02170119
KFPK 221535Z AUTO 17013KT 10SM CLR 22/12 A3006 RMK AO2 T02180122
KFPK 221515Z AUTO 17014G17KT 10SM CLR 21/12 A3007 RMK AO2 T02090118
KFPK 221455Z AUTO 18010G17KT 10SM CLR 20/11 A3007 RMK AO2 T02000111
KFPK 221435Z AUTO 17014G17KT 10SM CLR 19/11 A3008 RMK AO2 T01910106
KFPK 221415Z AUTO 18010G18KT 10SM CLR 18/10 A3008 RMK AO2 T01840100
KFPK 221355Z AUTO 17011KT 10SM CLR 18/10 A3009 RMK AO2 T01760096
KFPK 221335Z AUTO 16011KT 10SM CLR 17/09 A3009 RMK AO2 T01680091
KFPK 221315Z AUTO 16010G15KT 10SM CLR 16/09 A3008 RMK AO2 T01610085
KFPK 221255Z AUTO 16007KT 10SM CLR 16/08 A3009 RMK AO2 T01570082
KFPK 221235Z AUTO 15007KT 10SM CLR 15/08 A3008 RMK AO2 T01520081
KFPK 221215Z AUTO 16005KT 10SM CLR 15/08 A3009 RMK AO2 T01460080
KFPK 221155Z AUTO 17006KT 10SM CLR 15/08 A3008 RMK AO2 T01470078 10157 20141
KFPK 221135Z AUTO 16004KT 10SM CLR 14/08 A3007 RMK AO2 T01420077
KFPK 221114Z AUTO 17004KT 10SM CLR 15/08 A3007 RMK AO2 T01450077
KFPK 221055Z AUTO 15005KT 10SM CLR 15/08 A3007 RMK AO2 T01500076
KFPK 221035Z AUTO 16006KT 10SM CLR 15/08 A3008 RMK AO2 T01480076
KFPK 221014Z AUTO 15004KT 10SM CLR 15/08 A3008 RMK AO2 T01480076
KFPK 220955Z AUTO 16004KT 10SM CLR 15/08 A3007 RMK AO2 T01500076
KFPK 220935Z AUTO 16005KT 10SM CLR 15/08 A3008 RMK AO2 T01530077
KFPK 220914Z AUTO 16005KT 10SM CLR 16/08 A3009 RMK AO2 T01550079
KFPK 220855Z AUTO 16006KT 10SM CLR 16/08 A3009 RMK AO2 T01550078
KFPK 220835Z AUTO 16006KT 10SM SCT110 16/08 A3009 RMK AO2 T01560079
KFPK 220814Z AUTO 16007KT 10SM SCT120 16/08 A3010 RMK AO2 T01570077
KFPK 220755Z AUTO 17006KT 10SM SCT120 16/08 A3010 RMK AO2 T01560078
KFPK 220735Z AUTO 17007KT 10SM CLR 16/08 A3010 RMK AO2 T01570076
KFPK 220714Z AUTO 18006KT 10SM CLR 15/08 A3011 RMK AO2 T01530076
KFPK 220655Z AUTO 18006KT 10SM CLR 16/08 A3010 RMK AO2 T01570075
KFPK 220635Z AUTO 18007KT 10SM CLR 15/08 A3011 RMK AO2 T01510075
KFPK 220615Z AUTO 18007KT 10SM CLR 16/07 A3011 RMK AO2 T01550073
KFPK 220555Z AUTO 18006KT 10SM CLR 16/07 A3011 RMK AO2 T01580071 10192 20155 402430106
KFPK 220535Z AUTO 19006KT 10SM CLR 16/07 A3011 RMK AO2 T01570070
KFPK 220515Z AUTO 19005KT 10SM CLR 16/07 A3010 RMK AO2 T01600069
KFPK 220455Z AUTO 17007KT 10SM CLR 17/07 A3010 RMK AO2 T01650067
KFPK 220435Z AUTO 17006KT 10SM CLR 17/07 A3010 RMK AO2 T01650067
KFPK 220415Z AUTO 16007KT 10SM CLR 17/07 A3010 RMK AO2 T01650068
KFPK 220355Z AUTO 16007KT 10SM CLR 17/07 A3011 RMK AO2 T01650069
KFPK 220335Z AUTO 16006KT 10SM CLR 16/07 A3011 RMK AO2 T01630070
KFPK 220315Z AUTO 17006KT 10SM CLR 16/07 A3011 RMK AO2 T01640068